CYXJ

Fort St John Airport

Fort St.John, British Columbia, Canada
TAF CYXJ 181838Z 1819/1907 26012G22KT P6SM FEW040 FEW100 BKN230 BECMG 1822/1824 35015G25KT FM190000 35015G25KT P6SM SCT060 BKN100 TEMPO 1900/1907 P6SM -SHRA VCTS BKN060CB BKN100 BECMG 1901/1903 35008KT RMK NXT FCST BY 190100Z
Issued Valid From Valid To
Jul-18 @ 18:38 UTC
(4 hours ago)
Jul-18 @ 19:00 UTC
(3 hours ago)
Jul-19 @ 07:00 UTC
(in 9 hours)
Expired Click to View Jul-18 @ 19:00 to Jul-18 @ 22:00
TAF CYXJ 181838Z 1819/1907 26012G22KT P6SM FEW040 FEW100 BKN230
Wind Visibility Clouds
260° at 12 knots
 Gusting to 22 knots
Greater than 6 miles
  • Few at 4,000' AGL
  • Few at 10,000' AGL
  • Broken at 23,000' AGL
Becoming Jul-18 @ 22:00 to Jul-19 @ 00:00
BECMG 1822/1824 35015G25KT
Wind Visibility Clouds
350° at 15 knots
 Gusting to 25 knots
Greater than 6 miles
  • Few at 4,000' AGL
  • Few at 10,000' AGL
  • Broken at 23,000' AGL
From Jul-19 @ 00:00 to Jul-19 @ 01:00
FM190000 35015G25KT P6SM SCT060 BKN100
Wind Visibility Clouds
350° at 15 knots
 Gusting to 25 knots
Greater than 6 miles
  • Scattered at 6,000' AGL
  • Broken at 10,000' AGL
Temporary Jul-19 @ 00:00 to Jul-19 @ 07:00
TEMPO 1900/1907 P6SM -SHRA VCTS BKN060CB BKN100
Visibility Clouds Conditions
Greater than 6 miles
  • Broken at 6,000' AGL
  • Broken at 10,000' AGL
  • Light Rain
  • Area Thunderstorm
Becoming Jul-19 @ 01:00 to Jul-19 @ 07:00
BECMG 1901/1903 35008KT RMK NXT FCST BY 190100Z
Wind Visibility Clouds
350° at 8 knots Greater than 6 miles
  • Scattered at 6,000' AGL
  • Broken at 10,000' AGL
TAF CYXJ 181838Z 1819/1907 26012G22KT P6SM FEW040 FEW100 BKN230 BECMG 1822/1824 35015G25KT FM190000 35015G25KT P6SM SCT060 BKN100 TEMPO 1900/1907 P6SM -SHRA VCTS BKN060CB BKN100 BECMG 1901/1903 35008KT RMK NXT FCST BY 190100Z
Issued Jul-18 @ 18:38 UTC
(4 hours ago)
Valid From Jul-18 @ 19:00 UTC
(3 hours ago)
Valid To Jul-19 @ 07:00 UTC
(in 9 hours)
Jul-18 @ 19:00 - Jul-18 @ 22:00
Wind Visibility
260° at 12 knots
 Gusting to 22 knots
Greater than 6 miles
Clouds
  • Few at 4,000' AGL
  • Few at 10,000' AGL
  • Broken at 23,000' AGL
Becoming Jul-18 @ 22:00 - Jul-19 @ 00:00
Wind Visibility
350° at 15 knots
 Gusting to 25 knots
Greater than 6 miles
Clouds
  • Few at 4,000' AGL
  • Few at 10,000' AGL
  • Broken at 23,000' AGL
From Jul-19 @ 00:00 - Jul-19 @ 01:00
Wind Visibility
350° at 15 knots
 Gusting to 25 knots
Greater than 6 miles
Clouds
  • Scattered at 6,000' AGL
  • Broken at 10,000' AGL
Temporary Jul-19 @ 00:00 - Jul-19 @ 07:00
Clouds
  • Broken at 6,000' AGL
  • Broken at 10,000' AGL
Conditions
  • Light Rain
  • Area Thunderstorm
Becoming Jul-19 @ 01:00 - Jul-19 @ 07:00
Wind Visibility
350° at 8 knots Greater than 6 miles
Clouds
  • Scattered at 6,000' AGL
  • Broken at 10,000' AGL